createdAt,value
2019-03-19T00:00:40.443Z,101610.41
2019-03-19T00:03:08.970Z,101614.84
2019-03-19T00:05:37.546Z,101614.20
2019-03-19T00:08:06.066Z,101623.62
2019-03-19T00:10:34.698Z,101621.92
2019-03-19T00:13:03.185Z,101635.14
2019-03-19T00:15:31.715Z,101630.17
2019-03-19T00:18:00.226Z,101631.02
2019-03-19T00:20:28.730Z,101633.45
2019-03-19T00:22:57.264Z,101635.67
2019-03-19T00:25:30.295Z,101642.55
2019-03-19T00:41:51.274Z,101650.71
2019-03-19T00:44:20.303Z,101658.67
2019-03-19T00:46:48.846Z,101658.96
2019-03-19T00:49:17.387Z,101663.93
2019-03-19T00:51:45.891Z,101666.16
2019-03-19T00:54:14.389Z,101664.78
2019-03-19T00:56:42.919Z,101659.28
2019-03-19T00:59:11.451Z,101659.28
2019-03-19T01:01:39.958Z,101658.43
2019-03-19T01:04:08.714Z,101663.69
2019-03-19T01:06:37.270Z,101660.66
2019-03-19T01:09:07.315Z,101667.00
2019-03-19T01:11:35.880Z,101660.94
2019-03-19T01:14:04.400Z,101656.81
2019-03-19T01:16:32.898Z,101659.88
2019-03-19T01:19:01.422Z,101665.38
2019-03-19T01:21:29.927Z,101667.81
2019-03-19T01:23:58.913Z,101671.41
2019-03-19T01:26:27.434Z,101672.49
2019-03-19T01:28:55.979Z,101670.03
2019-03-19T01:31:26.669Z,101671.94
2019-03-19T01:33:54.743Z,101684.63
2019-03-19T01:36:23.555Z,101683.25
2019-03-19T01:38:52.116Z,101682.41
2019-03-19T01:41:20.606Z,101683.78
2019-03-19T01:43:49.116Z,101686.00
2019-03-19T01:46:17.677Z,101688.75
2019-03-19T01:48:46.178Z,101693.39
2019-03-19T01:51:14.695Z,101702.49
2019-03-19T01:53:43.274Z,101698.37
2019-03-19T01:56:12.133Z,101695.62
2019-03-19T01:58:40.653Z,101698.89
2019-03-19T02:01:09.426Z,101696.99
2019-03-19T02:03:37.956Z,101696.99
2019-03-19T02:06:06.487Z,101711.59
2019-03-19T02:08:35.006Z,101709.89
2019-03-19T02:11:03.582Z,101712.11
2019-03-19T02:13:32.087Z,101712.64
2019-03-19T02:16:01.010Z,101717.61
2019-03-19T02:18:29.539Z,101724.48
2019-03-19T02:20:58.042Z,101729.66
2019-03-19T02:23:26.553Z,101730.51
2019-03-19T02:25:55.117Z,101732.13
2019-03-19T02:28:23.627Z,101734.34
2019-03-19T02:30:52.152Z,101735.72
2019-03-19T02:33:20.680Z,101742.03
2019-03-19T02:35:49.191Z,101732.13
2019-03-19T02:38:17.712Z,101736.25
2019-03-19T02:40:46.218Z,101737.63
2019-03-19T02:43:14.747Z,101740.66
2019-03-19T02:45:43.613Z,101748.09
2019-03-19T02:48:12.141Z,101749.99
2019-03-19T02:50:40.980Z,101759.61
2019-03-19T02:53:09.497Z,101766.77
2019-03-19T02:55:38.076Z,101768.39
2019-03-19T02:58:06.611Z,101758.53
2019-03-19T03:00:35.133Z,101759.61
2019-03-19T03:03:03.668Z,101762.65
2019-03-19T03:05:32.186Z,101766.48
2019-03-19T03:08:00.715Z,101766.77
2019-03-19T03:10:29.240Z,101769.23
2019-03-19T03:12:57.801Z,101770.61
2019-03-19T03:15:26.322Z,101764.27
2019-03-19T03:17:54.865Z,101775.26
2019-03-19T03:20:23.369Z,101773.03
2019-03-19T03:22:51.884Z,101773.36
2019-03-19T03:25:20.448Z,101779.91
2019-03-19T03:27:48.950Z,101793.13
2019-03-19T03:30:17.472Z,101806.34
2019-03-19T03:32:46.103Z,101805.73
2019-03-19T03:35:14.676Z,101808.25
2019-03-19T03:37:43.210Z,101817.58
2019-03-19T03:40:12.181Z,101824.45
2019-03-19T03:42:43.019Z,101810.70
2019-03-19T03:45:11.185Z,101820.33
2019-03-19T03:47:39.693Z,101823.89
2019-03-19T03:50:09.185Z,101822.52
2019-03-19T03:52:37.710Z,101827.73
2019-03-19T03:55:07.069Z,101832.45
2019-03-19T03:57:35.592Z,101822.52
2019-03-19T04:00:04.723Z,101819.48
2019-03-19T04:02:33.562Z,101817.58
2019-03-19T04:05:02.106Z,101822.52
2019-03-19T04:07:30.914Z,101818.39
2019-03-19T04:09:59.440Z,101823.89
2019-03-19T04:12:27.960Z,101823.89
2019-03-19T04:14:56.487Z,101831.84
2019-03-19T04:17:24.999Z,101835.97
2019-03-19T04:19:53.549Z,101834.07
2019-03-19T04:22:22.070Z,101827.73
2019-03-19T04:24:50.595Z,101838.72
2019-03-19T04:27:19.722Z,101830.77
2019-03-19T04:29:48.347Z,101828.78
2019-03-19T04:32:16.831Z,101834.59
2019-03-19T04:34:45.331Z,101842.32
2019-03-19T04:37:13.871Z,101844.22
2019-03-19T04:39:42.385Z,101846.44
2019-03-19T04:42:10.904Z,101852.67
2019-03-19T04:44:39.420Z,101851.63
2019-03-19T04:47:07.960Z,101852.67
2019-03-19T04:49:36.555Z,101854.60
2019-03-19T04:52:05.186Z,101860.63
2019-03-19T04:54:34.005Z,101862.29
2019-03-19T04:57:02.547Z,101867.27
2019-03-19T04:59:31.049Z,101870.54
2019-03-19T05:01:59.570Z,101880.48
2019-03-19T05:04:28.105Z,101880.72
2019-03-19T05:06:56.959Z,101890.34
2019-03-19T05:09:25.485Z,101903.52
2019-03-19T05:11:54.022Z,101912.62
2019-03-19T05:14:22.543Z,101921.39
2019-03-19T05:16:51.087Z,101926.37
2019-03-19T05:19:19.938Z,101923.62
2019-03-19T05:21:48.440Z,101922.77
2019-03-19T05:24:16.970Z,101922.24
2019-03-19T05:26:45.473Z,101931.86
2019-03-19T05:29:13.967Z,101930.48
2019-03-19T05:31:42.480Z,101930.48
2019-03-19T05:34:10.995Z,101935.98
2019-03-19T05:36:39.862Z,101929.11
2019-03-19T05:39:08.572Z,101928.59
2019-03-19T05:41:37.082Z,101929.11
2019-03-19T05:44:05.886Z,101921.72
2019-03-19T05:46:34.399Z,101916.74
2019-03-19T05:49:02.931Z,101930.48
2019-03-19T05:51:31.449Z,101931.86
2019-03-19T05:54:00.224Z,101935.98
2019-03-19T05:56:28.729Z,101939.91
2019-03-19T05:58:57.333Z,101938.53
2019-03-19T06:01:25.842Z,101947.59
2019-03-19T06:03:54.480Z,101940.72
2019-03-19T06:06:22.989Z,101941.28
2019-03-19T06:08:51.521Z,101950.91
2019-03-19T06:11:20.037Z,101953.66
2019-03-19T06:13:48.585Z,101954.18
2019-03-19T06:16:17.173Z,101958.59
2019-03-19T06:18:45.694Z,101963.47
2019-03-19T06:21:14.215Z,101970.73
2019-03-19T06:23:42.747Z,101979.98
2019-03-19T06:26:11.294Z,101991.23
2019-03-19T06:28:39.831Z,101988.56
2019-03-19T06:31:08.335Z,101995.53
2019-03-19T06:33:36.867Z,101999.96
2019-03-19T06:36:05.379Z,102002.87
2019-03-19T06:38:34.310Z,102000.02
2019-03-19T06:41:02.825Z,101993.16
2019-03-19T06:43:31.343Z,101993.26
2019-03-19T06:46:00.388Z,101996.23
2019-03-19T06:48:28.946Z,101993.90
2019-03-19T06:50:57.752Z,102002.64
2019-03-19T06:53:26.258Z,102004.98
2019-03-19T06:55:54.802Z,102005.89
2019-03-19T06:58:23.334Z,102008.28
2019-03-19T07:00:51.818Z,102010.34
2019-03-19T07:03:20.307Z,102010.41
2019-03-19T07:05:49.147Z,102002.23
2019-03-19T07:08:17.667Z,102017.09
2019-03-19T07:10:46.230Z,102020.33
2019-03-19T07:13:14.812Z,102021.70
2019-03-19T07:15:43.323Z,102021.03
2019-03-19T07:18:11.838Z,102025.05
2019-03-19T07:20:40.349Z,102023.25
2019-03-19T07:23:08.866Z,102026.37
2019-03-19T07:25:37.411Z,102028.70
2019-03-19T07:28:06.041Z,102029.64
2019-03-19T07:30:34.619Z,102036.60
2019-03-19T07:33:03.153Z,102037.75
2019-03-19T07:35:31.911Z,102030.12
2019-03-19T07:38:00.436Z,102044.48
2019-03-19T07:40:28.954Z,102047.03
2019-03-19T07:42:57.473Z,102043.52
2019-03-19T07:45:25.990Z,102046.89
2019-03-19T07:47:54.518Z,102057.13
2019-03-19T07:50:23.059Z,102055.00
2019-03-19T07:52:51.558Z,102054.14
2019-03-19T07:55:20.069Z,102064.94
2019-03-19T07:57:48.578Z,102065.47
2019-03-19T08:00:17.178Z,102067.98
2019-03-19T08:02:45.717Z,102065.23
2019-03-19T08:05:14.232Z,102076.23
2019-03-19T08:07:42.930Z,102075.41
2019-03-19T08:10:11.451Z,102088.92
2019-03-19T08:12:39.960Z,102081.20
2019-03-19T08:15:10.261Z,102083.43
2019-03-19T08:17:38.789Z,102080.16
2019-03-19T08:20:08.535Z,102078.22
2019-03-19T08:22:37.366Z,102080.16
2019-03-19T08:25:05.978Z,102091.97
2019-03-19T08:27:34.499Z,102096.42
2019-03-19T08:30:03.286Z,102093.67
2019-03-19T08:32:31.823Z,102096.19
2019-03-19T08:35:00.682Z,102100.31
2019-03-19T08:37:29.198Z,102104.23
2019-03-19T08:39:57.993Z,102104.53
2019-03-19T08:42:26.516Z,102107.08
2019-03-19T08:44:55.047Z,102112.02
2019-03-19T08:47:23.576Z,102113.72
2019-03-19T08:49:52.127Z,102124.20
2019-03-19T08:52:20.660Z,102128.94
2019-03-19T08:54:49.188Z,102127.04
2019-03-19T08:57:17.716Z,102127.89
2019-03-19T08:59:46.252Z,102134.20
2019-03-19T09:02:14.770Z,102131.45
2019-03-19T09:04:43.279Z,102135.91
2019-03-19T09:07:11.781Z,102145.53
2019-03-19T09:09:40.386Z,102146.39
2019-03-19T09:12:08.931Z,102146.16
2019-03-19T09:14:37.447Z,102147.85
2019-03-19T09:17:05.977Z,102146.48
2019-03-19T09:19:34.583Z,102149.23
2019-03-19T09:22:04.385Z,102148.91
2019-03-19T09:24:33.158Z,102154.08
2019-03-19T09:27:01.679Z,102165.17
2019-03-19T09:29:30.205Z,102166.26
2019-03-19T09:31:58.729Z,102172.05
2019-03-19T09:34:27.522Z,102175.36
2019-03-19T09:36:57.675Z,102176.73
2019-03-19T09:39:26.432Z,102176.41
2019-03-19T09:41:54.914Z,102179.48
2019-03-19T09:44:23.420Z,102185.51
2019-03-19T09:46:52.297Z,102181.58
2019-03-19T09:49:21.464Z,102185.18
2019-03-19T09:51:49.990Z,102189.83
2019-03-19T09:54:18.533Z,102185.18
2019-03-19T09:56:47.320Z,102195.66
2019-03-19T09:59:15.858Z,102201.16
2019-03-19T10:01:44.367Z,102197.55
2019-03-19T10:04:12.903Z,102198.41
2019-03-19T10:06:41.406Z,102203.29
2019-03-19T10:09:09.985Z,102207.41
2019-03-19T10:11:38.489Z,102206.04
2019-03-19T10:14:07.019Z,102202.20
2019-03-19T10:16:35.542Z,102209.08
2019-03-19T10:19:04.056Z,102208.03
2019-03-19T10:21:32.570Z,102216.05
2019-03-19T10:24:01.083Z,102212.48
2019-03-19T10:26:29.593Z,102217.14
2019-03-19T10:28:58.106Z,102216.91
2019-03-19T10:31:26.621Z,102215.86
2019-03-19T10:33:55.139Z,102217.23
2019-03-19T10:36:23.640Z,102221.03
2019-03-19T10:38:52.164Z,102221.03
2019-03-19T10:41:20.712Z,102224.11
2019-03-19T10:43:49.232Z,102222.73
2019-03-19T10:46:17.767Z,102223.78
2019-03-19T10:48:46.267Z,102222.73
2019-03-19T10:51:14.788Z,102232.88
2019-03-19T10:53:43.325Z,102229.28
2019-03-19T10:56:11.835Z,102232.36
2019-03-19T10:58:40.368Z,102235.96
2019-03-19T11:01:08.938Z,102238.16
2019-03-19T11:03:37.455Z,102240.61
2019-03-19T11:06:05.976Z,102236.78
2019-03-19T11:08:34.519Z,102249.81
2019-03-19T11:11:03.668Z,102237.44
2019-03-19T11:13:32.403Z,102253.70
2019-03-19T11:16:00.918Z,102245.12
2019-03-19T11:18:29.460Z,102240.19
2019-03-19T11:20:58.050Z,102242.70
2019-03-19T11:23:26.674Z,102242.47
2019-03-19T11:25:55.204Z,102241.09
2019-03-19T11:28:23.706Z,102243.09
2019-03-19T11:30:52.590Z,102249.25
2019-03-19T11:33:21.118Z,102245.52
2019-03-19T11:35:49.598Z,102238.20
2019-03-19T11:38:18.435Z,102237.97
2019-03-19T11:40:47.281Z,102242.10
2019-03-19T11:43:16.081Z,102249.21
2019-03-19T11:45:44.627Z,102251.34
2019-03-19T11:48:13.146Z,102247.94
2019-03-19T11:50:41.662Z,102258.98
2019-03-19T11:53:10.187Z,102251.36
2019-03-19T11:55:38.718Z,102268.09
2019-03-19T11:58:07.340Z,102276.35
2019-03-19T12:00:38.598Z,102275.82
2019-03-19T12:03:15.551Z,102273.31
2019-03-19T12:05:37.376Z,102276.91
2019-03-19T12:08:05.929Z,102278.01
2019-03-19T12:10:34.459Z,102268.23
2019-03-19T12:13:02.984Z,102276.38
2019-03-19T12:15:31.791Z,102272.69
2019-03-19T12:18:00.316Z,102281.19
2019-03-19T12:20:28.823Z,102281.47
2019-03-19T12:22:57.364Z,102287.84
2019-03-19T12:25:25.884Z,102294.53
2019-03-19T12:27:54.483Z,102291.39
2019-03-19T12:30:26.003Z,102298.84
2019-03-19T12:32:53.573Z,102288.22
2019-03-19T12:35:22.699Z,102283.47
2019-03-19T12:37:51.576Z,102291.53
2019-03-19T12:40:20.118Z,102302.06
2019-03-19T12:42:48.641Z,102298.36
2019-03-19T12:45:17.525Z,102297.04
2019-03-19T12:47:46.362Z,102293.38
2019-03-19T12:50:15.936Z,102295.74
2019-03-19T12:52:44.483Z,102305.01
2019-03-19T12:55:12.983Z,102303.63
2019-03-19T12:57:41.514Z,102300.53
2019-03-19T13:00:16.059Z,102303.67
2019-03-19T13:02:44.603Z,102303.38
2019-03-19T13:05:13.133Z,102306.28
2019-03-19T13:07:41.644Z,102310.75
2019-03-19T13:10:12.613Z,102315.02
2019-03-19T13:12:41.129Z,102305.15
2019-03-19T13:15:10.386Z,102295.64
2019-03-19T13:17:38.916Z,102305.64
2019-03-19T13:20:08.644Z,102309.63
2019-03-19T13:22:37.154Z,102320.92
2019-03-19T13:25:05.911Z,102315.88
2019-03-19T13:27:34.735Z,102312.80
2019-03-19T13:30:03.419Z,102315.21
2019-03-19T13:32:32.024Z,102315.06
2019-03-19T13:35:00.548Z,102318.75
2019-03-19T13:37:29.075Z,102321.36
2019-03-19T13:39:57.589Z,102318.16
2019-03-19T13:42:26.429Z,102316.25
2019-03-19T13:44:55.041Z,102333.00
2019-03-19T13:47:23.579Z,102331.95
2019-03-19T13:49:52.346Z,102333.61
2019-03-19T13:52:20.868Z,102337.55
2019-03-19T13:54:49.631Z,102336.98
2019-03-19T13:57:18.159Z,102342.50
2019-03-19T13:59:46.678Z,102343.67
2019-03-19T14:02:15.205Z,102359.36
2019-03-19T14:04:43.799Z,102357.81
2019-03-19T14:07:12.309Z,102361.06
2019-03-19T14:09:40.824Z,102360.45
2019-03-19T14:12:09.358Z,102356.17
2019-03-19T14:14:37.877Z,102348.56
2019-03-19T14:17:06.728Z,102347.42
2019-03-19T14:19:35.283Z,102356.34
2019-03-19T14:22:03.813Z,102355.55
2019-03-19T14:24:32.324Z,102358.52
2019-03-19T14:27:00.837Z,102352.08
2019-03-19T14:29:29.346Z,102363.23
2019-03-19T14:31:57.853Z,102360.80
2019-03-19T14:34:26.651Z,102368.93
2019-03-19T14:36:55.180Z,102366.86
2019-03-19T14:39:23.743Z,102368.52
2019-03-19T14:41:52.258Z,102377.27
2019-03-19T14:44:21.932Z,102368.34
2019-03-19T14:46:50.934Z,102376.31
2019-03-19T14:49:19.456Z,102371.67
2019-03-19T14:51:47.988Z,102381.11
2019-03-19T14:54:16.488Z,102384.75
2019-03-19T14:56:45.023Z,102382.76
2019-03-19T14:59:13.836Z,102390.92
2019-03-19T15:01:42.324Z,102388.30
2019-03-19T15:04:10.842Z,102396.45
2019-03-19T15:06:39.354Z,102392.52
2019-03-19T15:09:07.882Z,102395.17
2019-03-19T15:11:36.401Z,102392.03
2019-03-19T15:14:04.932Z,102393.70
2019-03-19T15:16:33.460Z,102395.64
2019-03-19T15:19:01.968Z,102398.06
2019-03-19T15:21:30.513Z,102399.34
2019-03-19T15:23:59.013Z,102397.73
2019-03-19T15:26:27.536Z,102399.95
2019-03-19T15:28:56.075Z,102397.63
2019-03-19T15:31:29.861Z,102394.66
2019-03-19T15:33:54.838Z,102401.77
2019-03-19T15:36:23.679Z,102407.66
2019-03-19T15:38:52.198Z,102403.02
2019-03-19T15:41:20.721Z,102401.77
2019-03-19T15:43:49.271Z,102403.66
2019-03-19T15:46:17.791Z,102405.14
2019-03-19T15:48:46.306Z,102400.48
2019-03-19T15:51:14.844Z,102408.38
2019-03-19T15:53:43.353Z,102405.20
2019-03-19T15:56:12.465Z,102405.53
2019-03-19T15:58:40.971Z,102389.18
2019-03-19T16:01:09.513Z,102408.09
2019-03-19T16:03:38.030Z,102415.17
2019-03-19T16:06:06.553Z,102416.09
2019-03-19T16:08:35.071Z,102423.69
2019-03-19T16:11:03.704Z,102417.76
2019-03-19T16:13:32.551Z,102418.38
2019-03-19T16:16:01.330Z,102422.31
2019-03-19T16:18:29.861Z,102419.86
2019-03-19T16:20:58.397Z,102423.45
2019-03-19T16:23:26.917Z,102429.82
2019-03-19T16:25:55.422Z,102430.67
2019-03-19T16:28:24.001Z,102430.11
2019-03-19T16:30:52.826Z,102430.67
2019-03-19T16:33:21.335Z,102435.85
2019-03-19T16:35:49.967Z,102441.27
2019-03-19T16:38:18.454Z,102443.72
2019-03-19T16:40:47.098Z,102452.41
2019-03-19T16:43:15.640Z,102449.78
2019-03-19T16:45:44.202Z,102452.63
2019-03-19T16:48:12.764Z,102457.22
2019-03-19T16:50:41.272Z,102461.24
2019-03-19T16:53:09.786Z,102461.44
2019-03-19T16:55:38.311Z,102461.34
2019-03-19T16:58:06.812Z,102462.94
2019-03-19T17:00:35.347Z,102464.73
2019-03-19T17:03:03.851Z,102472.89
2019-03-19T17:05:32.449Z,102471.41
2019-03-19T17:08:00.977Z,102474.03
2019-03-19T17:10:29.535Z,102481.66
2019-03-19T17:12:58.063Z,102482.41
2019-03-19T17:15:26.594Z,102480.08
2019-03-19T17:17:55.121Z,102485.81
2019-03-19T17:20:23.642Z,102488.98
2019-03-19T17:22:52.186Z,102492.47
2019-03-19T17:25:20.791Z,102500.10
2019-03-19T17:27:49.314Z,102497.02
2019-03-19T17:30:20.037Z,102504.13
2019-03-19T17:32:48.566Z,102502.12
2019-03-19T17:35:17.079Z,102501.48
2019-03-19T17:37:45.602Z,102506.99
2019-03-19T17:40:14.142Z,102508.78
2019-03-19T17:42:42.650Z,102514.51
2019-03-19T17:45:11.204Z,102522.42
2019-03-19T17:47:39.734Z,102522.66
2019-03-19T17:50:10.767Z,102521.80
2019-03-19T17:52:39.354Z,102526.97
2019-03-19T17:55:08.761Z,102533.73
2019-03-19T17:57:37.294Z,102529.83
2019-03-19T18:00:06.219Z,102533.62
2019-03-19T18:02:34.765Z,102533.33
2019-03-19T18:05:03.621Z,102542.95
2019-03-19T18:07:32.154Z,102544.55
2019-03-19T18:10:00.698Z,102541.88
2019-03-19T18:12:29.283Z,102547.60
2019-03-19T18:14:57.796Z,102558.27
2019-03-19T18:17:26.287Z,102550.02
2019-03-19T18:19:54.808Z,102557.97
2019-03-19T18:22:23.330Z,102563.14
2019-03-19T18:24:51.843Z,102572.24
2019-03-19T18:27:20.475Z,102574.66
2019-03-19T18:29:48.970Z,102584.28
2019-03-19T18:32:17.839Z,102573.17
2019-03-19T18:34:46.354Z,102579.01
2019-03-19T18:37:15.190Z,102573.17
2019-03-19T18:39:43.733Z,102574.25
2019-03-19T18:42:12.298Z,102572.02
2019-03-19T18:44:40.816Z,102573.61
2019-03-19T18:47:09.360Z,102570.53
2019-03-19T18:49:37.863Z,102574.66
2019-03-19T18:52:06.397Z,102575.73
2019-03-19T18:54:35.164Z,102583.77
2019-03-19T18:57:03.691Z,102575.73
2019-03-19T18:59:32.863Z,102583.13
2019-03-19T19:02:01.772Z,102590.85
2019-03-19T19:04:30.318Z,102590.85
2019-03-19T19:06:58.817Z,102583.13
2019-03-19T19:09:27.339Z,102593.27
2019-03-19T19:11:55.861Z,102597.91
2019-03-19T19:14:24.767Z,102598.77
2019-03-19T19:16:53.266Z,102598.14
2019-03-19T19:19:21.785Z,102601.19
2019-03-19T19:21:50.291Z,102606.69
2019-03-19T19:24:18.815Z,102616.31
2019-03-19T19:26:47.323Z,102614.63
2019-03-19T19:29:15.878Z,102620.44
2019-03-19T19:31:44.509Z,102615.48
2019-03-19T19:34:13.328Z,102614.30
2019-03-19T19:36:41.951Z,102619.80
2019-03-19T19:39:10.449Z,102625.63
2019-03-19T19:41:39.023Z,102619.28
2019-03-19T19:44:07.538Z,102625.30
2019-03-19T19:46:36.072Z,102630.27
2019-03-19T19:49:04.639Z,102629.97
2019-03-19T19:51:33.229Z,102630.49
2019-03-19T19:54:02.650Z,102629.64
2019-03-19T19:56:31.182Z,102641.49
2019-03-19T19:58:59.714Z,102635.66
2019-03-19T20:01:28.494Z,102644.43
2019-03-19T20:03:57.033Z,102645.80
2019-03-19T20:06:25.582Z,102648.55
2019-03-19T20:08:54.188Z,102653.53
2019-03-19T20:11:22.695Z,102652.67
2019-03-19T20:13:51.242Z,102654.61
2019-03-19T20:16:19.742Z,102657.35
2019-03-19T20:18:48.287Z,102660.10
2019-03-19T20:21:16.817Z,102662.52
2019-03-19T20:23:45.352Z,102658.39
2019-03-19T20:26:13.867Z,102658.06
2019-03-19T20:28:42.480Z,102660.81
2019-03-19T20:31:11.014Z,102661.66
2019-03-19T20:33:39.543Z,102661.36
2019-03-19T20:36:08.136Z,102663.25
2019-03-19T20:38:36.648Z,102662.73
2019-03-19T20:41:05.179Z,102660.50
2019-03-19T20:43:33.714Z,102675.62
2019-03-19T20:46:02.256Z,102671.50
2019-03-19T20:48:30.783Z,102671.50
2019-03-19T20:50:59.437Z,102671.50
2019-03-19T20:53:28.280Z,102667.05
2019-03-19T20:55:56.814Z,102675.62
2019-03-19T20:58:25.345Z,102680.47
2019-03-19T21:00:54.384Z,102685.95
2019-03-19T21:03:22.890Z,102701.00
2019-03-19T21:05:51.431Z,102706.80
2019-03-19T21:08:20.031Z,102705.28
2019-03-19T21:10:48.604Z,102697.33
2019-03-19T21:13:17.127Z,102699.92
2019-03-19T21:15:45.947Z,102695.97
2019-03-19T21:18:14.527Z,102691.33
2019-03-19T21:20:43.058Z,102686.98
2019-03-19T21:23:11.599Z,102684.64
2019-03-19T21:25:40.118Z,102683.36
2019-03-19T21:28:13.924Z,102684.66
2019-03-19T21:30:39.203Z,102684.32
2019-03-19T21:33:07.832Z,102683.48
2019-03-19T21:35:36.369Z,102682.61
2019-03-19T21:38:05.259Z,102689.37
2019-03-19T21:40:33.763Z,102684.88
2019-03-19T21:43:02.302Z,102688.14
2019-03-19T21:45:30.824Z,102690.17
2019-03-19T21:47:59.406Z,102688.86
2019-03-19T21:50:27.948Z,102689.39
2019-03-19T21:52:56.462Z,102692.71
2019-03-19T21:55:24.972Z,102686.16
2019-03-19T21:57:53.542Z,102678.47
2019-03-19T22:00:22.076Z,102679.52
2019-03-19T22:02:50.587Z,102675.84
2019-03-19T22:05:19.101Z,102671.31
2019-03-19T22:07:47.631Z,102675.00
2019-03-19T22:10:16.239Z,102674.29
2019-03-19T22:12:45.014Z,102675.22
2019-03-19T22:15:15.375Z,102675.86
2019-03-19T22:17:43.956Z,102676.53
2019-03-19T22:20:14.177Z,102673.33
2019-03-19T22:22:42.710Z,102675.90
2019-03-19T22:25:11.771Z,102682.03
2019-03-19T22:27:40.322Z,102686.80
2019-03-19T22:30:10.906Z,102689.33
2019-03-19T22:32:39.447Z,102690.52
2019-03-19T22:35:08.300Z,102697.17
2019-03-19T22:37:36.835Z,102694.76
2019-03-19T22:40:06.770Z,102693.19
2019-03-19T22:42:35.265Z,102693.52
2019-03-19T22:45:03.876Z,102697.66
2019-03-19T22:47:32.426Z,102700.70
2019-03-19T22:50:00.956Z,102701.56
2019-03-19T22:52:29.800Z,102697.44
2019-03-19T22:54:58.344Z,102699.44
2019-03-19T22:57:26.882Z,102691.19
2019-03-19T22:59:56.078Z,102693.41
2019-03-19T23:02:24.871Z,102698.06
2019-03-19T23:04:53.421Z,102694.79
2019-03-19T23:07:21.944Z,102693.94
2019-03-19T23:09:50.555Z,102693.41
2019-03-19T23:12:19.070Z,102689.80
2019-03-19T23:14:48.167Z,102691.19
2019-03-19T23:17:16.714Z,102693.41
2019-03-19T23:19:45.538Z,102702.20
2019-03-19T23:22:14.084Z,102700.81
2019-03-19T23:24:42.581Z,102702.20
2019-03-19T23:27:11.131Z,102706.32
2019-03-19T23:29:39.651Z,102706.84
2019-03-19T23:32:08.161Z,102702.72
2019-03-19T23:34:38.644Z,102700.48
2019-03-19T23:37:07.342Z,102697.44
2019-03-19T23:39:35.864Z,102705.91
2019-03-19T23:42:04.382Z,102706.59
2019-03-19T23:44:33.149Z,102710.41
2019-03-19T23:47:01.680Z,102708.41
2019-03-19T23:49:30.190Z,102708.59
2019-03-19T23:51:58.729Z,102709.97
2019-03-19T23:54:27.304Z,102709.33
2019-03-19T23:56:55.802Z,102712.30
2019-03-19T23:59:24.319Z,102713.87
